sensor_id;sensor_type;location;lat;lon;timestamp;P1;durP1;ratioP1;P2;durP2;ratioP2
25207;SDS011;13153;52.316;21.166;2023-02-04T00:01:04;29.65;;;15.70;;
25207;SDS011;13153;52.316;21.166;2023-02-04T00:03:31;29.00;;;16.38;;
25207;SDS011;13153;52.316;21.166;2023-02-04T00:05:57;29.30;;;16.00;;
25207;SDS011;13153;52.316;21.166;2023-02-04T00:08:22;29.70;;;15.73;;
25207;SDS011;13153;52.316;21.166;2023-02-04T00:10:48;31.38;;;15.98;;
25207;SDS011;13153;52.316;21.166;2023-02-04T00:13:14;30.02;;;15.70;;
25207;SDS011;13153;52.316;21.166;2023-02-04T00:15:40;35.75;;;16.20;;
25207;SDS011;13153;52.316;21.166;2023-02-04T00:18:05;27.27;;;15.48;;
25207;SDS011;13153;52.316;21.166;2023-02-04T00:20:32;31.05;;;16.02;;
25207;SDS011;13153;52.316;21.166;2023-02-04T00:22:58;27.95;;;15.18;;
25207;SDS011;13153;52.316;21.166;2023-02-04T00:25:24;27.48;;;15.00;;
25207;SDS011;13153;52.316;21.166;2023-02-04T00:27:49;25.42;;;14.80;;
25207;SDS011;13153;52.316;21.166;2023-02-04T00:30:15;24.05;;;14.38;;
25207;SDS011;13153;52.316;21.166;2023-02-04T00:32:41;24.65;;;14.18;;
25207;SDS011;13153;52.316;21.166;2023-02-04T00:35:07;26.58;;;14.40;;
25207;SDS011;13153;52.316;21.166;2023-02-04T00:37:33;28.00;;;14.00;;
25207;SDS011;13153;52.316;21.166;2023-02-04T00:39:59;23.25;;;13.15;;
25207;SDS011;13153;52.316;21.166;2023-02-04T00:42:25;25.45;;;13.95;;
25207;SDS011;13153;52.316;21.166;2023-02-04T00:44:51;22.02;;;13.13;;
25207;SDS011;13153;52.316;21.166;2023-02-04T00:47:17;24.02;;;13.82;;
25207;SDS011;13153;52.316;21.166;2023-02-04T00:49:43;24.60;;;14.43;;
25207;SDS011;13153;52.316;21.166;2023-02-04T00:52:09;25.55;;;13.60;;
25207;SDS011;13153;52.316;21.166;2023-02-04T00:54:34;24.95;;;14.70;;
25207;SDS011;13153;52.316;21.166;2023-02-04T00:57:00;24.50;;;14.48;;
25207;SDS011;13153;52.316;21.166;2023-02-04T00:59:26;23.38;;;13.77;;
25207;SDS011;13153;52.316;21.166;2023-02-04T01:01:52;23.17;;;14.00;;
25207;SDS011;13153;52.316;21.166;2023-02-04T01:04:17;24.60;;;13.85;;
25207;SDS011;13153;52.316;21.166;2023-02-04T01:06:44;21.27;;;12.82;;
25207;SDS011;13153;52.316;21.166;2023-02-04T01:09:09;25.40;;;13.82;;
25207;SDS011;13153;52.316;21.166;2023-02-04T01:11:36;22.73;;;13.07;;
25207;SDS011;13153;52.316;21.166;2023-02-04T01:14:02;23.77;;;14.43;;
25207;SDS011;13153;52.316;21.166;2023-02-04T01:16:28;20.63;;;13.45;;
25207;SDS011;13153;52.316;21.166;2023-02-04T01:18:53;21.40;;;13.02;;
25207;SDS011;13153;52.316;21.166;2023-02-04T01:21:20;24.73;;;13.00;;
25207;SDS011;13153;52.316;21.166;2023-02-04T01:23:49;21.58;;;13.07;;
25207;SDS011;13153;52.316;21.166;2023-02-04T01:26:16;23.80;;;13.15;;
25207;SDS011;13153;52.316;21.166;2023-02-04T01:28:43;25.20;;;12.88;;
25207;SDS011;13153;52.316;21.166;2023-02-04T01:31:10;22.00;;;12.48;;
25207;SDS011;13153;52.316;21.166;2023-02-04T01:33:36;23.55;;;12.77;;
25207;SDS011;13153;52.316;21.166;2023-02-04T01:36:02;21.83;;;12.82;;
25207;SDS011;13153;52.316;21.166;2023-02-04T01:38:28;23.00;;;12.80;;
25207;SDS011;13153;52.316;21.166;2023-02-04T01:40:54;20.27;;;12.43;;
25207;SDS011;13153;52.316;21.166;2023-02-04T01:43:20;19.67;;;11.88;;
25207;SDS011;13153;52.316;21.166;2023-02-04T01:45:48;21.88;;;11.70;;
25207;SDS011;13153;52.316;21.166;2023-02-04T01:48:15;18.00;;;11.25;;
25207;SDS011;13153;52.316;21.166;2023-02-04T01:51:07;21.35;;;11.32;;
25207;SDS011;13153;52.316;21.166;2023-02-04T01:53:37;21.10;;;11.00;;
25207;SDS011;13153;52.316;21.166;2023-02-04T01:56:19;18.95;;;10.80;;
25207;SDS011;13153;52.316;21.166;2023-02-04T01:58:50;17.27;;;10.70;;
25207;SDS011;13153;52.316;21.166;2023-02-04T02:04:28;17.08;;;9.77;;
25207;SDS011;13153;52.316;21.166;2023-02-04T02:06:58;18.83;;;10.40;;
25207;SDS011;13153;52.316;21.166;2023-02-04T02:09:29;14.82;;;9.27;;
25207;SDS011;13153;52.316;21.166;2023-02-04T02:11:56;14.88;;;9.70;;
25207;SDS011;13153;52.316;21.166;2023-02-04T02:14:25;17.15;;;9.27;;
25207;SDS011;13153;52.316;21.166;2023-02-04T02:16:51;17.55;;;8.98;;
25207;SDS011;13153;52.316;21.166;2023-02-04T02:19:19;15.85;;;8.90;;
25207;SDS011;13153;52.316;21.166;2023-02-04T02:22:02;15.55;;;9.23;;
25207;SDS011;13153;52.316;21.166;2023-02-04T02:27:04;12.73;;;8.38;;
25207;SDS011;13153;52.316;21.166;2023-02-04T02:29:35;15.07;;;8.45;;
25207;SDS011;13153;52.316;21.166;2023-02-04T02:32:05;15.50;;;9.30;;
25207;SDS011;13153;52.316;21.166;2023-02-04T02:34:34;17.05;;;8.00;;
25207;SDS011;13153;52.316;21.166;2023-02-04T02:37:03;14.15;;;8.50;;
25207;SDS011;13153;52.316;21.166;2023-02-04T02:39:30;12.52;;;7.97;;
25207;SDS011;13153;52.316;21.166;2023-02-04T02:41:57;12.80;;;7.55;;
25207;SDS011;13153;52.316;21.166;2023-02-04T02:44:24;12.45;;;7.72;;
25207;SDS011;13153;52.316;21.166;2023-02-04T02:46:52;11.82;;;7.38;;
25207;SDS011;13153;52.316;21.166;2023-02-04T02:49:19;13.80;;;7.80;;
25207;SDS011;13153;52.316;21.166;2023-02-04T02:51:46;12.48;;;7.57;;
25207;SDS011;13153;52.316;21.166;2023-02-04T02:54:21;13.95;;;7.88;;
25207;SDS011;13153;52.316;21.166;2023-02-04T02:56:53;12.00;;;7.40;;
25207;SDS011;13153;52.316;21.166;2023-02-04T02:59:20;12.13;;;7.75;;
25207;SDS011;13153;52.316;21.166;2023-02-04T03:01:47;13.45;;;7.40;;
25207;SDS011;13153;52.316;21.166;2023-02-04T03:04:18;15.43;;;8.70;;
25207;SDS011;13153;52.316;21.166;2023-02-04T03:06:46;13.27;;;7.40;;
25207;SDS011;13153;52.316;21.166;2023-02-04T03:09:12;14.38;;;7.85;;
25207;SDS011;13153;52.316;21.166;2023-02-04T03:11:38;15.70;;;7.80;;
25207;SDS011;13153;52.316;21.166;2023-02-04T03:14:04;13.45;;;8.10;;
25207;SDS011;13153;52.316;21.166;2023-02-04T03:16:31;13.07;;;7.97;;
25207;SDS011;13153;52.316;21.166;2023-02-04T03:19:01;14.52;;;7.82;;
25207;SDS011;13153;52.316;21.166;2023-02-04T03:21:30;16.52;;;8.18;;
25207;SDS011;13153;52.316;21.166;2023-02-04T03:23:56;12.00;;;7.63;;
25207;SDS011;13153;52.316;21.166;2023-02-04T03:26:23;15.88;;;8.35;;
25207;SDS011;13153;52.316;21.166;2023-02-04T03:28:49;14.23;;;7.97;;
25207;SDS011;13153;52.316;21.166;2023-02-04T03:31:18;13.38;;;7.85;;
25207;SDS011;13153;52.316;21.166;2023-02-04T03:33:45;13.40;;;7.72;;
25207;SDS011;13153;52.316;21.166;2023-02-04T03:36:10;12.55;;;7.80;;
25207;SDS011;13153;52.316;21.166;2023-02-04T03:38:36;11.73;;;7.43;;
25207;SDS011;13153;52.316;21.166;2023-02-04T03:41:05;12.18;;;7.60;;
25207;SDS011;13153;52.316;21.166;2023-02-04T03:43:31;11.90;;;7.30;;
25207;SDS011;13153;52.316;21.166;2023-02-04T03:45:57;15.45;;;7.30;;
25207;SDS011;13153;52.316;21.166;2023-02-04T03:48:23;14.57;;;7.25;;
25207;SDS011;13153;52.316;21.166;2023-02-04T03:50:48;12.63;;;7.53;;
25207;SDS011;13153;52.316;21.166;2023-02-04T03:53:14;13.80;;;7.32;;
25207;SDS011;13153;52.316;21.166;2023-02-04T03:55:40;12.77;;;7.00;;
25207;SDS011;13153;52.316;21.166;2023-02-04T03:58:06;11.35;;;6.80;;
25207;SDS011;13153;52.316;21.166;2023-02-04T04:00:31;11.75;;;6.75;;
25207;SDS011;13153;52.316;21.166;2023-02-04T04:02:57;12.38;;;6.97;;
25207;SDS011;13153;52.316;21.166;2023-02-04T04:05:23;12.10;;;7.25;;
25207;SDS011;13153;52.316;21.166;2023-02-04T04:07:50;13.68;;;7.10;;
25207;SDS011;13153;52.316;21.166;2023-02-04T04:10:16;12.98;;;7.47;;
25207;SDS011;13153;52.316;21.166;2023-02-04T04:12:42;15.20;;;7.97;;
25207;SDS011;13153;52.316;21.166;2023-02-04T04:15:08;18.30;;;8.60;;
25207;SDS011;13153;52.316;21.166;2023-02-04T04:17:34;17.88;;;7.68;;
25207;SDS011;13153;52.316;21.166;2023-02-04T04:20:00;14.35;;;7.50;;
25207;SDS011;13153;52.316;21.166;2023-02-04T04:22:26;16.08;;;7.55;;
25207;SDS011;13153;52.316;21.166;2023-02-04T04:24:51;13.40;;;7.93;;
25207;SDS011;13153;52.316;21.166;2023-02-04T04:27:17;14.98;;;7.78;;
25207;SDS011;13153;52.316;21.166;2023-02-04T04:29:43;17.25;;;7.88;;
25207;SDS011;13153;52.316;21.166;2023-02-04T04:32:09;15.25;;;8.10;;
25207;SDS011;13153;52.316;21.166;2023-02-04T04:34:35;14.32;;;7.43;;
25207;SDS011;13153;52.316;21.166;2023-02-04T04:37:01;14.98;;;7.15;;
25207;SDS011;13153;52.316;21.166;2023-02-04T04:39:27;14.25;;;7.13;;
25207;SDS011;13153;52.316;21.166;2023-02-04T04:41:52;12.82;;;7.75;;
25207;SDS011;13153;52.316;21.166;2023-02-04T04:44:18;13.05;;;7.22;;
25207;SDS011;13153;52.316;21.166;2023-02-04T04:46:44;13.43;;;7.28;;
25207;SDS011;13153;52.316;21.166;2023-02-04T04:49:09;14.95;;;8.02;;
25207;SDS011;13153;52.316;21.166;2023-02-04T04:51:35;12.82;;;7.40;;
25207;SDS011;13153;52.316;21.166;2023-02-04T04:54:01;12.82;;;7.70;;
25207;SDS011;13153;52.316;21.166;2023-02-04T04:56:27;11.55;;;7.20;;
25207;SDS011;13153;52.316;21.166;2023-02-04T04:58:53;12.68;;;7.78;;
25207;SDS011;13153;52.316;21.166;2023-02-04T05:01:18;12.15;;;7.45;;
25207;SDS011;13153;52.316;21.166;2023-02-04T05:03:46;14.27;;;7.90;;
25207;SDS011;13153;52.316;21.166;2023-02-04T05:06:12;14.85;;;7.47;;
25207;SDS011;13153;52.316;21.166;2023-02-04T05:08:39;15.40;;;8.38;;
25207;SDS011;13153;52.316;21.166;2023-02-04T05:11:04;11.73;;;7.50;;
25207;SDS011;13153;52.316;21.166;2023-02-04T05:13:30;14.25;;;7.55;;
25207;SDS011;13153;52.316;21.166;2023-02-04T05:15:56;13.70;;;8.10;;
25207;SDS011;13153;52.316;21.166;2023-02-04T05:18:22;14.00;;;8.05;;
25207;SDS011;13153;52.316;21.166;2023-02-04T05:20:47;12.63;;;7.65;;
25207;SDS011;13153;52.316;21.166;2023-02-04T05:23:13;14.73;;;7.90;;
25207;SDS011;13153;52.316;21.166;2023-02-04T05:25:41;16.00;;;7.60;;
25207;SDS011;13153;52.316;21.166;2023-02-04T05:28:07;12.98;;;7.57;;
25207;SDS011;13153;52.316;21.166;2023-02-04T05:30:32;12.57;;;7.32;;
25207;SDS011;13153;52.316;21.166;2023-02-04T05:32:58;15.07;;;7.60;;
25207;SDS011;13153;52.316;21.166;2023-02-04T05:35:24;12.88;;;7.50;;
25207;SDS011;13153;52.316;21.166;2023-02-04T05:37:50;13.85;;;7.50;;
25207;SDS011;13153;52.316;21.166;2023-02-04T05:40:15;16.02;;;7.40;;
25207;SDS011;13153;52.316;21.166;2023-02-04T05:42:41;14.65;;;7.40;;
25207;SDS011;13153;52.316;21.166;2023-02-04T05:45:12;12.93;;;7.57;;
25207;SDS011;13153;52.316;21.166;2023-02-04T05:47:40;14.32;;;7.80;;
25207;SDS011;13153;52.316;21.166;2023-02-04T05:50:07;13.48;;;7.45;;
25207;SDS011;13153;52.316;21.166;2023-02-04T05:52:33;15.90;;;7.60;;
25207;SDS011;13153;52.316;21.166;2023-02-04T05:54:59;12.65;;;7.05;;
25207;SDS011;13153;52.316;21.166;2023-02-04T05:57:24;12.75;;;6.65;;
25207;SDS011;13153;52.316;21.166;2023-02-04T05:59:50;17.83;;;7.05;;
25207;SDS011;13153;52.316;21.166;2023-02-04T06:02:16;12.63;;;6.90;;
25207;SDS011;13153;52.316;21.166;2023-02-04T06:04:42;11.60;;;6.63;;
25207;SDS011;13153;52.316;21.166;2023-02-04T06:07:08;13.98;;;7.00;;
25207;SDS011;13153;52.316;21.166;2023-02-04T06:09:34;14.77;;;6.60;;
25207;SDS011;13153;52.316;21.166;2023-02-04T06:11:59;13.20;;;6.80;;
25207;SDS011;13153;52.316;21.166;2023-02-04T06:14:25;12.10;;;6.80;;
25207;SDS011;13153;52.316;21.166;2023-02-04T06:16:51;14.93;;;6.60;;
25207;SDS011;13153;52.316;21.166;2023-02-04T06:19:17;14.07;;;6.50;;
25207;SDS011;13153;52.316;21.166;2023-02-04T06:21:42;12.57;;;6.85;;
25207;SDS011;13153;52.316;21.166;2023-02-04T06:24:09;17.20;;;7.18;;
25207;SDS011;13153;52.316;21.166;2023-02-04T06:26:34;12.45;;;6.55;;
25207;SDS011;13153;52.316;21.166;2023-02-04T06:29:00;14.13;;;6.70;;
25207;SDS011;13153;52.316;21.166;2023-02-04T06:31:26;12.55;;;6.63;;
25207;SDS011;13153;52.316;21.166;2023-02-04T06:33:52;11.30;;;6.65;;
25207;SDS011;13153;52.316;21.166;2023-02-04T06:36:18;11.88;;;6.97;;
25207;SDS011;13153;52.316;21.166;2023-02-04T06:38:44;12.35;;;6.93;;
25207;SDS011;13153;52.316;21.166;2023-02-04T06:41:09;11.40;;;6.60;;
25207;SDS011;13153;52.316;21.166;2023-02-04T06:43:35;12.55;;;6.80;;
25207;SDS011;13153;52.316;21.166;2023-02-04T06:46:01;14.25;;;6.50;;
25207;SDS011;13153;52.316;21.166;2023-02-04T06:48:27;12.07;;;6.40;;
25207;SDS011;13153;52.316;21.166;2023-02-04T06:50:54;13.65;;;7.10;;
25207;SDS011;13153;52.316;21.166;2023-02-04T06:53:20;16.02;;;6.95;;
25207;SDS011;13153;52.316;21.166;2023-02-04T06:55:46;12.00;;;6.90;;
25207;SDS011;13153;52.316;21.166;2023-02-04T06:58:11;18.75;;;7.05;;
25207;SDS011;13153;52.316;21.166;2023-02-04T07:00:37;12.77;;;6.45;;
25207;SDS011;13153;52.316;21.166;2023-02-04T07:03:03;10.98;;;6.30;;
25207;SDS011;13153;52.316;21.166;2023-02-04T07:05:31;8.45;;;5.43;;
25207;SDS011;13153;52.316;21.166;2023-02-04T07:07:57;9.68;;;5.40;;
25207;SDS011;13153;52.316;21.166;2023-02-04T07:10:23;7.45;;;4.82;;
25207;SDS011;13153;52.316;21.166;2023-02-04T07:12:49;12.25;;;5.38;;
25207;SDS011;13153;52.316;21.166;2023-02-04T07:15:15;12.55;;;5.40;;
25207;SDS011;13153;52.316;21.166;2023-02-04T07:17:41;10.40;;;5.05;;
25207;SDS011;13153;52.316;21.166;2023-02-04T07:20:07;9.18;;;4.95;;
25207;SDS011;13153;52.316;21.166;2023-02-04T07:22:34;13.48;;;5.88;;
25207;SDS011;13153;52.316;21.166;2023-02-04T07:25:00;10.60;;;5.25;;
25207;SDS011;13153;52.316;21.166;2023-02-04T07:27:26;9.35;;;4.90;;
25207;SDS011;13153;52.316;21.166;2023-02-04T07:29:52;6.85;;;4.30;;
25207;SDS011;13153;52.316;21.166;2023-02-04T07:32:17;10.85;;;4.28;;
25207;SDS011;13153;52.316;21.166;2023-02-04T07:34:43;6.90;;;4.13;;
25207;SDS011;13153;52.316;21.166;2023-02-04T07:37:09;8.02;;;3.90;;
25207;SDS011;13153;52.316;21.166;2023-02-04T07:39:35;8.85;;;4.68;;
25207;SDS011;13153;52.316;21.166;2023-02-04T07:42:00;7.22;;;4.40;;
25207;SDS011;13153;52.316;21.166;2023-02-04T07:44:26;7.80;;;4.38;;
25207;SDS011;13153;52.316;21.166;2023-02-04T07:46:52;9.20;;;4.47;;
25207;SDS011;13153;52.316;21.166;2023-02-04T07:49:18;9.32;;;4.72;;
25207;SDS011;13153;52.316;21.166;2023-02-04T07:51:43;11.55;;;5.75;;
25207;SDS011;13153;52.316;21.166;2023-02-04T07:54:09;10.10;;;5.07;;
25207;SDS011;13153;52.316;21.166;2023-02-04T07:56:35;9.93;;;4.95;;
25207;SDS011;13153;52.316;21.166;2023-02-04T07:59:01;8.85;;;4.70;;
25207;SDS011;13153;52.316;21.166;2023-02-04T08:01:27;8.93;;;4.60;;
25207;SDS011;13153;52.316;21.166;2023-02-04T08:03:52;9.45;;;4.40;;
25207;SDS011;13153;52.316;21.166;2023-02-04T08:06:18;7.03;;;3.80;;
25207;SDS011;13153;52.316;21.166;2023-02-04T08:08:44;8.77;;;4.00;;
25207;SDS011;13153;52.316;21.166;2023-02-04T08:11:10;8.80;;;4.07;;
25207;SDS011;13153;52.316;21.166;2023-02-04T08:13:35;8.93;;;4.43;;
25207;SDS011;13153;52.316;21.166;2023-02-04T08:16:01;8.52;;;3.92;;
25207;SDS011;13153;52.316;21.166;2023-02-04T08:18:27;7.63;;;4.00;;
25207;SDS011;13153;52.316;21.166;2023-02-04T08:20:53;8.63;;;4.03;;
25207;SDS011;13153;52.316;21.166;2023-02-04T08:23:19;8.23;;;4.30;;
25207;SDS011;13153;52.316;21.166;2023-02-04T08:25:44;9.43;;;4.25;;
25207;SDS011;13153;52.316;21.166;2023-02-04T08:28:10;9.63;;;3.97;;
25207;SDS011;13153;52.316;21.166;2023-02-04T08:30:36;6.20;;;3.70;;
25207;SDS011;13153;52.316;21.166;2023-02-04T08:33:02;7.38;;;3.70;;
25207;SDS011;13153;52.316;21.166;2023-02-04T08:35:28;8.88;;;3.78;;
25207;SDS011;13153;52.316;21.166;2023-02-04T08:37:53;5.93;;;3.60;;
25207;SDS011;13153;52.316;21.166;2023-02-04T08:40:19;8.00;;;3.80;;
25207;SDS011;13153;52.316;21.166;2023-02-04T08:42:45;9.88;;;4.25;;
25207;SDS011;13153;52.316;21.166;2023-02-04T08:45:11;6.82;;;3.85;;
25207;SDS011;13153;52.316;21.166;2023-02-04T08:47:36;10.15;;;4.60;;
25207;SDS011;13153;52.316;21.166;2023-02-04T08:50:02;15.60;;;6.38;;
25207;SDS011;13153;52.316;21.166;2023-02-04T08:52:28;7.55;;;3.97;;
25207;SDS011;13153;52.316;21.166;2023-02-04T08:54:54;10.55;;;4.07;;
25207;SDS011;13153;52.316;21.166;2023-02-04T08:57:20;9.13;;;3.80;;
25207;SDS011;13153;52.316;21.166;2023-02-04T08:59:45;9.52;;;3.90;;
25207;SDS011;13153;52.316;21.166;2023-02-04T09:02:11;10.90;;;4.70;;
25207;SDS011;13153;52.316;21.166;2023-02-04T09:04:37;9.75;;;4.28;;
25207;SDS011;13153;52.316;21.166;2023-02-04T09:07:03;7.63;;;4.07;;
25207;SDS011;13153;52.316;21.166;2023-02-04T09:09:29;6.20;;;3.60;;
25207;SDS011;13153;52.316;21.166;2023-02-04T09:11:54;7.05;;;3.78;;
25207;SDS011;13153;52.316;21.166;2023-02-04T09:14:20;6.75;;;3.22;;
25207;SDS011;13153;52.316;21.166;2023-02-04T09:16:46;7.45;;;3.63;;
25207;SDS011;13153;52.316;21.166;2023-02-04T09:19:13;9.93;;;4.22;;
25207;SDS011;13153;52.316;21.166;2023-02-04T09:21:40;10.00;;;4.35;;
25207;SDS011;13153;52.316;21.166;2023-02-04T09:24:06;6.47;;;3.75;;
25207;SDS011;13153;52.316;21.166;2023-02-04T09:26:32;8.18;;;3.60;;
25207;SDS011;13153;52.316;21.166;2023-02-04T09:28:58;7.57;;;3.78;;
25207;SDS011;13153;52.316;21.166;2023-02-04T09:31:24;7.85;;;3.45;;
25207;SDS011;13153;52.316;21.166;2023-02-04T09:33:50;9.95;;;5.05;;
25207;SDS011;13153;52.316;21.166;2023-02-04T09:36:15;8.77;;;4.20;;
25207;SDS011;13153;52.316;21.166;2023-02-04T09:38:41;7.38;;;3.67;;
25207;SDS011;13153;52.316;21.166;2023-02-04T09:41:08;9.63;;;3.53;;
25207;SDS011;13153;52.316;21.166;2023-02-04T09:43:44;6.68;;;3.42;;
25207;SDS011;13153;52.316;21.166;2023-02-04T09:46:20;10.45;;;4.90;;
25207;SDS011;13153;52.316;21.166;2023-02-04T09:48:52;7.15;;;3.30;;
25207;SDS011;13153;52.316;21.166;2023-02-04T09:51:22;5.43;;;2.85;;
25207;SDS011;13153;52.316;21.166;2023-02-04T09:53:53;8.48;;;3.65;;
25207;SDS011;13153;52.316;21.166;2023-02-04T09:56:31;6.45;;;3.20;;
25207;SDS011;13153;52.316;21.166;2023-02-04T09:58:57;6.15;;;3.50;;
25207;SDS011;13153;52.316;21.166;2023-02-04T10:01:25;8.55;;;4.55;;
25207;SDS011;13153;52.316;21.166;2023-02-04T10:03:52;7.43;;;4.18;;
25207;SDS011;13153;52.316;21.166;2023-02-04T10:06:24;8.40;;;4.40;;
25207;SDS011;13153;52.316;21.166;2023-02-04T10:08:50;8.48;;;3.67;;
25207;SDS011;13153;52.316;21.166;2023-02-04T10:11:18;8.13;;;4.13;;
25207;SDS011;13153;52.316;21.166;2023-02-04T10:13:48;6.80;;;3.30;;
25207;SDS011;13153;52.316;21.166;2023-02-04T10:18:56;6.43;;;3.80;;
25207;SDS011;13153;52.316;21.166;2023-02-04T10:21:28;5.93;;;3.70;;
25207;SDS011;13153;52.316;21.166;2023-02-04T10:23:56;8.48;;;4.68;;
25207;SDS011;13153;52.316;21.166;2023-02-04T10:26:27;10.10;;;4.35;;
25207;SDS011;13153;52.316;21.166;2023-02-04T10:36:50;6.40;;;3.53;;
25207;SDS011;13153;52.316;21.166;2023-02-04T10:39:23;6.93;;;4.00;;
25207;SDS011;13153;52.316;21.166;2023-02-04T10:41:57;6.22;;;3.25;;
25207;SDS011;13153;52.316;21.166;2023-02-04T10:44:29;5.03;;;2.97;;
25207;SDS011;13153;52.316;21.166;2023-02-04T10:47:13;6.18;;;3.05;;
25207;SDS011;13153;52.316;21.166;2023-02-04T10:49:52;7.30;;;3.72;;
25207;SDS011;13153;52.316;21.166;2023-02-04T10:52:34;7.63;;;3.65;;
25207;SDS011;13153;52.316;21.166;2023-02-04T10:55:07;6.13;;;3.40;;
25207;SDS011;13153;52.316;21.166;2023-02-04T11:05:23;6.05;;;3.58;;
25207;SDS011;13153;52.316;21.166;2023-02-04T11:07:56;10.45;;;3.72;;
25207;SDS011;13153;52.316;21.166;2023-02-04T11:10:23;6.82;;;3.90;;
25207;SDS011;13153;52.316;21.166;2023-02-04T11:16:07;5.50;;;3.40;;
25207;SDS011;13153;52.316;21.166;2023-02-04T11:20:50;12.00;;;3.72;;
25207;SDS011;13153;52.316;21.166;2023-02-04T11:26:00;7.18;;;3.85;;
25207;SDS011;13153;52.316;21.166;2023-02-04T11:36:54;9.00;;;3.97;;
25207;SDS011;13153;52.316;21.166;2023-02-04T11:45:13;11.05;;;5.53;;
25207;SDS011;13153;52.316;21.166;2023-02-04T11:47:45;9.63;;;5.00;;
25207;SDS011;13153;52.316;21.166;2023-02-04T11:50:20;10.00;;;4.93;;
25207;SDS011;13153;52.316;21.166;2023-02-04T11:52:50;12.73;;;5.57;;
25207;SDS011;13153;52.316;21.166;2023-02-04T11:55:18;10.55;;;4.97;;
25207;SDS011;13153;52.316;21.166;2023-02-04T11:57:44;8.40;;;4.57;;
25207;SDS011;13153;52.316;21.166;2023-02-04T12:00:20;24.83;;;6.07;;
25207;SDS011;13153;52.316;21.166;2023-02-04T12:03:44;28.48;;;6.57;;
25207;SDS011;13153;52.316;21.166;2023-02-04T12:05:56;23.65;;;6.38;;
25207;SDS011;13153;52.316;21.166;2023-02-04T12:13:32;74.47;;;10.35;;
25207;SDS011;13153;52.316;21.166;2023-02-04T12:16:11;28.75;;;6.63;;
25207;SDS011;13153;52.316;21.166;2023-02-04T12:18:36;16.08;;;5.43;;
25207;SDS011;13153;52.316;21.166;2023-02-04T12:21:03;16.15;;;5.30;;
25207;SDS011;13153;52.316;21.166;2023-02-04T12:23:29;43.25;;;6.55;;
25207;SDS011;13153;52.316;21.166;2023-02-04T12:25:55;10.93;;;4.32;;
25207;SDS011;13153;52.316;21.166;2023-02-04T12:28:21;6.38;;;3.47;;
25207;SDS011;13153;52.316;21.166;2023-02-04T12:30:48;10.43;;;4.68;;
25207;SDS011;13153;52.316;21.166;2023-02-04T12:33:14;6.25;;;3.75;;
25207;SDS011;13153;52.316;21.166;2023-02-04T12:35:40;7.57;;;3.90;;
25207;SDS011;13153;52.316;21.166;2023-02-04T12:38:06;9.30;;;4.60;;
25207;SDS011;13153;52.316;21.166;2023-02-04T12:40:32;9.73;;;4.93;;
25207;SDS011;13153;52.316;21.166;2023-02-04T12:42:58;9.10;;;4.20;;
25207;SDS011;13153;52.316;21.166;2023-02-04T12:45:25;11.43;;;4.28;;
25207;SDS011;13153;52.316;21.166;2023-02-04T12:47:51;16.63;;;5.10;;
25207;SDS011;13153;52.316;21.166;2023-02-04T12:50:17;10.80;;;5.38;;
25207;SDS011;13153;52.316;21.166;2023-02-04T12:52:50;8.20;;;3.70;;
25207;SDS011;13153;52.316;21.166;2023-02-04T12:55:22;9.45;;;4.80;;
25207;SDS011;13153;52.316;21.166;2023-02-04T12:57:51;10.00;;;4.63;;
25207;SDS011;13153;52.316;21.166;2023-02-04T13:00:18;11.27;;;5.63;;
25207;SDS011;13153;52.316;21.166;2023-02-04T13:02:45;14.23;;;6.72;;
25207;SDS011;13153;52.316;21.166;2023-02-04T13:05:12;18.70;;;6.47;;
25207;SDS011;13153;52.316;21.166;2023-02-04T13:07:38;9.80;;;4.80;;
25207;SDS011;13153;52.316;21.166;2023-02-04T13:10:07;11.45;;;5.30;;
25207;SDS011;13153;52.316;21.166;2023-02-04T13:12:34;8.35;;;4.47;;
25207;SDS011;13153;52.316;21.166;2023-02-04T13:15:01;9.60;;;4.18;;
25207;SDS011;13153;52.316;21.166;2023-02-04T13:17:27;9.57;;;4.20;;
25207;SDS011;13153;52.316;21.166;2023-02-04T13:19:53;12.80;;;5.35;;
25207;SDS011;13153;52.316;21.166;2023-02-04T13:22:18;9.40;;;4.80;;
25207;SDS011;13153;52.316;21.166;2023-02-04T13:24:44;11.68;;;4.55;;
25207;SDS011;13153;52.316;21.166;2023-02-04T13:27:10;9.18;;;4.40;;
25207;SDS011;13153;52.316;21.166;2023-02-04T13:29:36;8.73;;;4.78;;
25207;SDS011;13153;52.316;21.166;2023-02-04T13:32:01;9.40;;;4.22;;
25207;SDS011;13153;52.316;21.166;2023-02-04T13:34:27;12.90;;;5.00;;
25207;SDS011;13153;52.316;21.166;2023-02-04T13:36:53;18.13;;;7.07;;
25207;SDS011;13153;52.316;21.166;2023-02-04T13:39:19;18.25;;;7.25;;
25207;SDS011;13153;52.316;21.166;2023-02-04T13:41:45;17.95;;;7.00;;
25207;SDS011;13153;52.316;21.166;2023-02-04T13:44:11;17.52;;;7.97;;
25207;SDS011;13153;52.316;21.166;2023-02-04T13:46:37;19.88;;;8.32;;
25207;SDS011;13153;52.316;21.166;2023-02-04T13:49:02;20.08;;;7.53;;
25207;SDS011;13153;52.316;21.166;2023-02-04T13:51:28;16.45;;;5.57;;
25207;SDS011;13153;52.316;21.166;2023-02-04T13:53:54;7.88;;;3.80;;
25207;SDS011;13153;52.316;21.166;2023-02-04T13:56:22;10.00;;;4.38;;
25207;SDS011;13153;52.316;21.166;2023-02-04T13:58:48;9.80;;;4.57;;
25207;SDS011;13153;52.316;21.166;2023-02-04T14:01:13;8.57;;;3.92;;
25207;SDS011;13153;52.316;21.166;2023-02-04T14:03:39;4.75;;;2.60;;
25207;SDS011;13153;52.316;21.166;2023-02-04T14:06:06;3.92;;;2.55;;
25207;SDS011;13153;52.316;21.166;2023-02-04T14:08:33;6.07;;;2.40;;
25207;SDS011;13153;52.316;21.166;2023-02-04T14:10:59;5.18;;;2.90;;
25207;SDS011;13153;52.316;21.166;2023-02-04T14:13:25;5.00;;;2.50;;
25207;SDS011;13153;52.316;21.166;2023-02-04T14:15:51;4.78;;;2.65;;
25207;SDS011;13153;52.316;21.166;2023-02-04T14:18:17;8.23;;;4.30;;
25207;SDS011;13153;52.316;21.166;2023-02-04T14:20:43;6.32;;;3.67;;
25207;SDS011;13153;52.316;21.166;2023-02-04T14:23:09;6.90;;;3.50;;
25207;SDS011;13153;52.316;21.166;2023-02-04T14:25:38;8.60;;;4.50;;
25207;SDS011;13153;52.316;21.166;2023-02-04T14:28:04;8.40;;;3.95;;
25207;SDS011;13153;52.316;21.166;2023-02-04T14:30:31;7.68;;;4.03;;
25207;SDS011;13153;52.316;21.166;2023-02-04T14:32:57;7.82;;;4.00;;
25207;SDS011;13153;52.316;21.166;2023-02-04T14:35:24;6.50;;;3.75;;
25207;SDS011;13153;52.316;21.166;2023-02-04T14:37:50;9.98;;;4.28;;
25207;SDS011;13153;52.316;21.166;2023-02-04T14:40:16;12.88;;;4.78;;
25207;SDS011;13153;52.316;21.166;2023-02-04T14:42:44;10.07;;;4.47;;
25207;SDS011;13153;52.316;21.166;2023-02-04T14:45:10;14.43;;;5.07;;
25207;SDS011;13153;52.316;21.166;2023-02-04T14:47:38;12.25;;;4.90;;
25207;SDS011;13153;52.316;21.166;2023-02-04T14:50:05;17.77;;;5.65;;
25207;SDS011;13153;52.316;21.166;2023-02-04T14:52:39;17.65;;;6.05;;
25207;SDS011;13153;52.316;21.166;2023-02-04T14:55:05;14.48;;;6.60;;
25207;SDS011;13153;52.316;21.166;2023-02-04T14:57:33;11.50;;;5.60;;
25207;SDS011;13153;52.316;21.166;2023-02-04T14:59:59;16.25;;;6.43;;
25207;SDS011;13153;52.316;21.166;2023-02-04T15:02:25;12.80;;;5.70;;
25207;SDS011;13153;52.316;21.166;2023-02-04T15:04:51;11.35;;;5.45;;
25207;SDS011;13153;52.316;21.166;2023-02-04T15:07:16;10.70;;;4.90;;
25207;SDS011;13153;52.316;21.166;2023-02-04T15:09:42;10.57;;;4.85;;
25207;SDS011;13153;52.316;21.166;2023-02-04T15:12:09;7.97;;;4.20;;
25207;SDS011;13153;52.316;21.166;2023-02-04T15:14:35;9.20;;;4.32;;